createdAt,value
2019-06-01T00:00:24.243Z,18.50
2019-06-01T00:02:56.991Z,18.50
2019-06-01T00:05:25.938Z,18.50
2019-06-01T00:07:55.126Z,18.50
2019-06-01T00:10:24.308Z,18.50
2019-06-01T00:12:53.508Z,18.50
2019-06-01T00:15:22.692Z,18.50
2019-06-01T00:17:51.877Z,18.50
2019-06-01T00:20:21.061Z,18.50
2019-06-01T00:22:51.550Z,18.40
2019-06-01T00:25:21.005Z,18.30
2019-06-01T00:27:50.265Z,18.20
2019-06-01T00:30:27.075Z,18.20
2019-06-01T00:32:51.341Z,18.10
2019-06-01T00:35:20.599Z,18.00
2019-06-01T00:37:50.179Z,18.00
2019-06-01T00:40:19.464Z,18.00
2019-06-01T00:42:48.652Z,18.00
2019-06-01T00:45:19.362Z,17.90
2019-06-01T00:47:48.916Z,17.90
2019-06-01T00:50:18.280Z,17.90
2019-06-01T00:52:47.595Z,17.90
2019-06-01T00:55:16.863Z,17.80
2019-06-01T00:57:46.105Z,17.80
2019-06-01T01:00:15.645Z,17.80
2019-06-01T01:02:45.846Z,17.70
2019-06-01T01:05:17.927Z,17.70
2019-06-01T01:07:48.680Z,17.60
2019-06-01T01:10:18.669Z,17.50
2019-06-01T01:13:04.648Z,17.40
2019-06-01T01:15:34.615Z,17.40
2019-06-01T01:18:04.796Z,17.40
2019-06-01T01:20:34.977Z,17.40
2019-06-01T01:23:04.824Z,17.40
2019-06-01T01:25:34.124Z,17.50
2019-06-01T01:28:03.336Z,17.50
2019-06-01T01:30:32.641Z,17.50
2019-06-01T01:33:02.942Z,17.50
2019-06-01T01:35:32.622Z,17.40
2019-06-01T01:38:03.067Z,17.40
2019-06-01T01:40:32.308Z,17.40
2019-06-01T01:43:01.524Z,17.40
2019-06-01T01:45:30.755Z,17.30
2019-06-01T01:48:01.292Z,17.30
2019-06-01T01:50:30.789Z,17.30
2019-06-01T01:53:00.274Z,17.20
2019-06-01T01:55:29.554Z,17.20
2019-06-01T01:57:59.529Z,17.20
2019-06-01T02:00:37.601Z,17.20
2019-06-01T02:03:07.529Z,17.10
2019-06-01T02:05:36.908Z,17.10
2019-06-01T02:10:35.628Z,17.00
2019-06-01T02:13:06.583Z,17.00
2019-06-01T02:15:37.261Z,16.90
2019-06-01T02:18:06.654Z,16.90
2019-06-01T02:20:36.027Z,16.90
2019-06-01T02:23:06.112Z,16.80
2019-06-01T02:25:35.467Z,16.80
2019-06-01T02:28:04.938Z,16.80
2019-06-01T02:30:34.162Z,16.70
2019-06-01T02:33:04.596Z,16.70
2019-06-01T02:35:34.153Z,16.70
2019-06-01T02:38:05.716Z,16.70
2019-06-01T02:40:35.357Z,16.60
2019-06-01T02:43:06.789Z,16.60
2019-06-01T02:45:36.233Z,16.60
2019-06-01T02:48:06.508Z,16.60
2019-06-01T02:50:36.141Z,16.50
2019-06-01T02:53:07.392Z,16.50
2019-06-01T02:55:36.593Z,16.50
2019-06-01T02:58:06.747Z,16.50
2019-06-01T03:00:49.575Z,16.50
2019-06-01T03:03:18.875Z,16.50
2019-06-01T03:05:48.106Z,16.40
2019-06-01T03:08:18.453Z,16.40
2019-06-01T03:10:47.920Z,16.40
2019-06-01T03:13:19.508Z,16.30
2019-06-01T03:15:50.256Z,16.30
2019-06-01T03:18:21.112Z,16.20
2019-06-01T03:20:51.689Z,16.20
2019-06-01T03:23:22.460Z,16.20
2019-06-01T03:25:53.561Z,16.10
2019-06-01T03:28:24.788Z,16.10
2019-06-01T03:30:54.079Z,16.20
2019-06-01T03:33:23.280Z,16.20
2019-06-01T03:35:52.592Z,16.20
2019-06-01T03:38:21.796Z,16.20
2019-06-01T03:40:51.025Z,16.10
2019-06-01T03:43:21.103Z,16.10
2019-06-01T03:45:50.325Z,16.10
2019-06-01T03:48:20.010Z,16.10
2019-06-01T03:50:49.228Z,16.00
2019-06-01T03:53:18.469Z,16.00
2019-06-01T03:55:47.685Z,16.00
2019-06-01T03:58:17.893Z,16.00
2019-06-01T04:00:47.121Z,16.00
2019-06-01T04:03:16.596Z,16.10
2019-06-01T04:05:45.849Z,16.10
2019-06-01T04:08:15.404Z,16.10
2019-06-01T04:10:44.643Z,16.10
2019-06-01T04:13:13.863Z,16.20
2019-06-01T04:15:43.081Z,16.20
2019-06-01T04:18:13.897Z,16.20
2019-06-01T04:20:43.427Z,16.20
2019-06-01T04:23:12.645Z,16.30
2019-06-01T04:25:41.855Z,16.30
2019-06-01T04:28:14.022Z,16.30
2019-06-01T04:30:43.229Z,16.40
2019-06-01T04:33:13.273Z,16.50
2019-06-01T04:35:42.649Z,16.50
2019-06-01T04:38:11.986Z,16.60
2019-06-01T04:40:41.363Z,16.70
2019-06-01T04:43:11.983Z,16.80
2019-06-01T04:45:41.376Z,16.90
2019-06-01T04:48:10.676Z,17.00
2019-06-01T04:50:40.492Z,17.10
2019-06-01T04:53:11.691Z,17.20
2019-06-01T04:55:40.620Z,17.20
2019-06-01T04:58:11.020Z,17.30
2019-06-01T05:00:40.404Z,17.40
2019-06-01T05:03:10.861Z,17.50
2019-06-01T05:05:40.539Z,17.50
2019-06-01T05:08:09.761Z,17.60
2019-06-01T05:10:39.001Z,17.70
2019-06-01T05:13:09.462Z,17.80
2019-06-01T05:18:08.437Z,18.00
2019-06-01T05:20:37.952Z,18.00
2019-06-01T05:23:08.458Z,18.10
2019-06-01T05:25:37.915Z,18.20
2019-06-01T05:28:07.152Z,18.30
2019-06-01T05:30:36.380Z,18.40
2019-06-01T05:33:21.381Z,18.50
2019-06-01T05:35:37.716Z,18.60
2019-06-01T05:38:08.138Z,18.60
2019-06-01T05:40:37.471Z,18.70
2019-06-01T05:43:09.674Z,18.80
2019-06-01T05:45:37.606Z,18.90
2019-06-01T05:48:06.863Z,18.90
2019-06-01T05:50:36.150Z,19.00
2019-06-01T05:53:05.374Z,19.10
2019-06-01T05:55:34.578Z,19.20
2019-06-01T05:58:03.807Z,19.20
2019-06-01T06:00:43.248Z,19.20
2019-06-01T06:03:15.511Z,19.30
2019-06-01T06:05:43.450Z,19.30
2019-06-01T06:08:13.159Z,19.40
2019-06-01T06:10:43.751Z,19.40
2019-06-01T06:13:13.351Z,19.50
2019-06-01T06:15:42.857Z,19.50
2019-06-01T06:18:12.067Z,19.60
2019-06-01T06:20:41.308Z,19.70
2019-06-01T06:23:10.512Z,19.80
2019-06-01T06:25:41.418Z,19.80
2019-06-01T06:28:10.656Z,19.90
2019-06-01T06:30:39.893Z,20.00
2019-06-01T06:33:09.125Z,20.10
2019-06-01T06:35:38.334Z,20.10
2019-06-01T06:38:07.560Z,20.20
2019-06-01T06:40:36.792Z,20.20
2019-06-01T06:43:18.600Z,20.30
2019-06-01T06:45:37.258Z,20.40
2019-06-01T06:48:06.502Z,20.50
2019-06-01T06:50:35.785Z,20.60
2019-06-01T06:53:05.022Z,20.70
2019-06-01T06:55:35.456Z,20.80
2019-06-01T06:58:04.700Z,20.90
2019-06-01T07:00:33.922Z,20.90
2019-06-01T07:03:03.216Z,21.00
2019-06-01T07:05:32.426Z,21.00
2019-06-01T07:08:01.825Z,21.10
2019-06-01T07:10:31.080Z,21.10
2019-06-01T07:13:00.353Z,21.10
2019-06-01T07:15:29.576Z,21.10
2019-06-01T07:17:58.786Z,21.10
2019-06-01T07:20:28.036Z,21.10
2019-06-01T07:22:59.659Z,21.30
2019-06-01T07:25:28.926Z,21.30
2019-06-01T07:27:58.205Z,21.40
2019-06-01T07:30:28.332Z,21.50
2019-06-01T07:32:59.117Z,21.60
2019-06-01T07:35:28.485Z,21.70
2019-06-01T07:37:57.844Z,21.80
2019-06-01T07:40:27.080Z,21.90
2019-06-01T07:42:57.380Z,22.00
2019-06-01T07:45:26.962Z,22.10
2019-06-01T07:47:56.295Z,22.20
2019-06-01T07:50:26.002Z,22.30
2019-06-01T07:52:56.436Z,22.40
2019-06-01T07:55:25.643Z,22.40
2019-06-01T07:57:55.200Z,22.40
2019-06-01T08:00:25.609Z,22.40
2019-06-01T08:02:55.326Z,22.40
2019-06-01T08:05:25.523Z,22.50
2019-06-01T08:07:55.760Z,22.60
2019-06-01T08:10:26.147Z,22.60
2019-06-01T08:12:56.241Z,22.70
2019-06-01T08:15:25.708Z,22.80
2019-06-01T08:17:55.016Z,22.80
2019-06-01T08:20:24.226Z,22.80
2019-06-01T08:22:53.454Z,22.80
2019-06-01T08:25:22.656Z,22.90
2019-06-01T08:27:51.887Z,22.90
2019-06-01T08:30:22.485Z,23.00
2019-06-01T08:32:51.900Z,23.00
2019-06-01T08:35:21.105Z,23.00
2019-06-01T08:37:50.586Z,23.00
2019-06-01T08:40:19.968Z,23.10
2019-06-01T08:42:49.192Z,23.10
2019-06-01T08:45:18.471Z,23.20
2019-06-01T08:47:47.772Z,23.30
2019-06-01T08:50:17.363Z,23.30
2019-06-01T08:52:46.578Z,23.40
2019-06-01T08:55:15.868Z,23.30
2019-06-01T08:57:45.126Z,23.30
2019-06-01T09:00:14.732Z,23.30
2019-06-01T09:02:44.036Z,23.40
2019-06-01T09:05:23.802Z,23.40
2019-06-01T09:07:44.608Z,23.40
2019-06-01T09:10:14.011Z,23.40
2019-06-01T09:12:44.300Z,23.50
2019-06-01T09:15:15.694Z,23.60
2019-06-01T09:17:44.898Z,23.70
2019-06-01T09:20:14.402Z,23.80
2019-06-01T09:22:43.611Z,23.90
2019-06-01T09:25:12.916Z,23.80
2019-06-01T09:27:42.142Z,23.80
2019-06-01T09:30:14.427Z,23.80
2019-06-01T09:32:43.660Z,23.80
2019-06-01T09:35:13.447Z,23.80
2019-06-01T09:37:45.630Z,23.90
2019-06-01T09:40:15.011Z,23.90
2019-06-01T09:42:44.272Z,24.00
2019-06-01T09:45:13.725Z,24.10
2019-06-01T09:47:42.951Z,24.10
2019-06-01T09:50:12.422Z,24.20
2019-06-01T09:52:41.630Z,24.20
2019-06-01T09:55:10.937Z,24.30
2019-06-01T09:57:40.149Z,24.40
2019-06-01T10:00:10.880Z,24.40
2019-06-01T10:02:40.917Z,24.50
2019-06-01T10:05:10.429Z,24.60
2019-06-01T10:07:39.653Z,24.60
2019-06-01T10:12:38.775Z,24.80
2019-06-01T10:15:08.521Z,25.00
2019-06-01T10:17:39.025Z,25.00
2019-06-01T10:20:09.909Z,25.00
2019-06-01T10:22:39.522Z,25.00
2019-06-01T10:25:09.577Z,25.10
2019-06-01T10:27:38.817Z,25.10
2019-06-01T10:30:10.122Z,25.20
2019-06-01T10:32:39.907Z,25.30
2019-06-01T10:35:09.687Z,25.40
2019-06-01T10:37:39.717Z,25.40
2019-06-01T10:40:09.391Z,25.50
2019-06-01T10:42:39.841Z,25.60
2019-06-01T10:45:10.984Z,25.70
2019-06-01T10:47:40.221Z,25.70
2019-06-01T10:50:09.692Z,25.60
2019-06-01T10:52:40.283Z,25.60
2019-06-01T10:55:09.789Z,25.40
2019-06-01T10:57:39.046Z,25.20
2019-06-01T11:00:12.490Z,25.00
2019-06-01T11:02:43.120Z,25.00
2019-06-01T11:05:13.097Z,25.10
2019-06-01T11:07:43.130Z,25.20
2019-06-01T11:10:14.626Z,25.40
2019-06-01T11:12:43.845Z,25.50
2019-06-01T11:15:13.519Z,25.60
2019-06-01T11:17:43.239Z,25.70
2019-06-01T11:20:12.612Z,25.80
2019-06-01T11:22:41.889Z,25.70
2019-06-01T11:25:11.184Z,25.70
2019-06-01T11:27:41.910Z,25.80
2019-06-01T11:30:23.263Z,25.90
2019-06-01T11:32:52.494Z,26.00
2019-06-01T11:35:21.706Z,26.10
2019-06-01T11:37:50.946Z,26.20
2019-06-01T11:40:20.226Z,26.30
2019-06-01T11:42:49.551Z,26.30
2019-06-01T11:45:18.761Z,26.30
2019-06-01T11:47:47.998Z,26.30
2019-06-01T11:50:17.235Z,26.40
2019-06-01T11:52:46.479Z,26.40
2019-06-01T11:55:15.968Z,26.50
2019-06-01T11:57:45.948Z,26.50
2019-06-01T12:00:16.601Z,26.50
2019-06-01T12:02:46.175Z,26.50
2019-06-01T12:05:16.620Z,26.30
2019-06-01T12:07:46.148Z,26.30
2019-06-01T12:10:15.517Z,26.30
2019-06-01T12:12:44.762Z,26.30
2019-06-01T12:15:14.572Z,26.40
2019-06-01T12:17:44.872Z,26.50
2019-06-01T12:20:14.713Z,26.50
2019-06-01T12:22:45.005Z,26.60
2019-06-01T12:25:14.675Z,26.70
2019-06-01T12:27:43.961Z,26.80
2019-06-01T12:30:13.365Z,26.70
2019-06-01T12:32:43.948Z,26.60
2019-06-01T12:35:13.744Z,26.50
2019-06-01T12:38:00.849Z,26.50
2019-06-01T12:40:14.169Z,26.60
2019-06-01T12:42:44.060Z,26.70
2019-06-01T12:45:22.419Z,26.80
2019-06-01T12:47:54.312Z,26.90
2019-06-01T12:50:20.691Z,27.00
2019-06-01T12:52:50.015Z,26.90
2019-06-01T12:55:19.308Z,26.80
2019-06-01T12:57:49.254Z,26.70
2019-06-01T13:00:19.671Z,26.60
2019-06-01T13:02:59.809Z,26.70
2019-06-01T13:05:19.929Z,26.70
2019-06-01T13:07:58.543Z,26.80
2019-06-01T13:10:20.076Z,26.90
2019-06-01T13:12:49.466Z,26.90
2019-06-01T13:15:19.033Z,26.80
2019-06-01T13:17:49.368Z,26.80
2019-06-01T13:20:19.797Z,26.80
2019-06-01T13:22:49.988Z,26.70
2019-06-01T13:25:19.697Z,26.70
2019-06-01T13:27:50.492Z,26.80
2019-06-01T13:30:20.250Z,26.90
2019-06-01T13:32:50.761Z,27.00
2019-06-01T13:35:20.176Z,27.00
2019-06-01T13:37:50.773Z,27.00
2019-06-01T13:40:20.309Z,27.00
2019-06-01T13:42:49.545Z,27.20
2019-06-01T13:45:18.928Z,27.20
2019-06-01T13:47:48.157Z,27.20
2019-06-01T13:52:48.094Z,27.40
2019-06-01T13:55:17.400Z,27.60
2019-06-01T13:57:46.656Z,27.60
2019-06-01T14:00:29.459Z,27.70
2019-06-01T14:02:50.538Z,27.80
2019-06-01T14:05:17.984Z,27.80
2019-06-01T14:07:47.521Z,27.90
2019-06-01T14:10:16.950Z,28.00
2019-06-01T14:12:47.429Z,28.10
2019-06-01T14:15:16.989Z,28.10
2019-06-01T14:17:46.227Z,28.10
2019-06-01T14:20:16.277Z,28.20
2019-06-01T14:22:45.795Z,28.30
2019-06-01T14:25:15.493Z,28.40
2019-06-01T14:27:46.063Z,28.50
2019-06-01T14:30:15.694Z,28.60
2019-06-01T14:32:46.129Z,28.70
2019-06-01T14:35:15.679Z,28.70
2019-06-01T14:37:44.896Z,28.70
2019-06-01T14:40:14.135Z,28.70
2019-06-01T14:42:43.336Z,28.80
2019-06-01T14:45:12.771Z,28.80
2019-06-01T14:47:43.648Z,28.90
2019-06-01T14:50:13.536Z,29.00
2019-06-01T14:52:42.756Z,29.10
2019-06-01T14:55:12.163Z,29.10
2019-06-01T14:57:41.511Z,29.20
2019-06-01T15:00:11.727Z,29.20
2019-06-01T15:02:40.940Z,29.20
2019-06-01T15:05:10.360Z,29.20
2019-06-01T15:07:39.583Z,29.10
2019-06-01T15:10:09.355Z,28.90
2019-06-01T15:12:38.562Z,28.90
2019-06-01T15:15:08.331Z,28.90
2019-06-01T15:17:37.798Z,29.00
2019-06-01T15:20:10.364Z,29.10
2019-06-01T15:22:39.643Z,29.20
2019-06-01T15:25:09.616Z,29.20
2019-06-01T15:27:38.868Z,29.30
2019-06-01T15:30:13.319Z,29.30
2019-06-01T15:32:42.548Z,29.40
2019-06-01T15:35:11.947Z,29.40
2019-06-01T15:37:41.180Z,29.50
2019-06-01T15:40:11.063Z,29.60
2019-06-01T15:42:40.517Z,29.60
2019-06-01T15:45:10.461Z,29.70
2019-06-01T15:47:39.700Z,29.80
2019-06-01T15:50:11.076Z,29.80
2019-06-01T15:52:40.287Z,29.90
2019-06-01T15:55:09.752Z,30.00
2019-06-01T15:57:38.956Z,30.00
2019-06-01T16:00:09.144Z,30.10
2019-06-01T16:02:38.595Z,30.10
2019-06-01T16:05:08.134Z,30.20
2019-06-01T16:07:37.352Z,30.40
2019-06-01T16:10:08.524Z,30.50
2019-06-01T16:12:37.931Z,30.60
2019-06-01T16:15:08.189Z,30.80
2019-06-01T16:17:37.460Z,30.90
2019-06-01T16:20:08.699Z,31.10
2019-06-01T16:22:38.996Z,31.20
2019-06-01T16:25:08.769Z,31.40
2019-06-01T16:27:38.049Z,31.90
2019-06-01T16:30:09.494Z,33.00
2019-06-01T16:32:39.831Z,33.50
2019-06-01T16:35:09.615Z,34.10
2019-06-01T16:37:38.855Z,34.40
2019-06-01T16:40:10.308Z,35.50
2019-06-01T16:45:09.048Z,36.60
2019-06-01T16:47:39.976Z,37.20
2019-06-01T16:50:09.639Z,37.70
2019-06-01T16:52:39.288Z,38.10
2019-06-01T16:55:10.977Z,38.50
2019-06-01T16:57:40.189Z,38.70
2019-06-01T17:00:10.672Z,38.80
2019-06-01T17:02:39.957Z,38.70
2019-06-01T17:05:09.661Z,37.80
2019-06-01T17:07:38.881Z,37.60
2019-06-01T17:10:24.281Z,37.80
2019-06-01T17:12:43.190Z,38.20
2019-06-01T17:15:12.896Z,38.90
2019-06-01T17:17:42.304Z,39.60
2019-06-01T17:20:40.888Z,40.30
2019-06-01T17:23:24.279Z,40.90
2019-06-01T17:25:42.187Z,41.20
2019-06-01T17:28:11.465Z,41.50
2019-06-01T17:30:40.869Z,41.80
2019-06-01T17:33:10.160Z,41.70
2019-06-01T17:35:39.404Z,41.50
2019-06-01T17:38:09.193Z,41.00
2019-06-01T17:43:10.254Z,40.20
2019-06-01T17:45:39.517Z,39.90
2019-06-01T17:48:23.461Z,39.40
2019-06-01T17:50:39.688Z,39.00
2019-06-01T17:53:08.979Z,38.70
2019-06-01T17:55:39.131Z,38.40
2019-06-01T17:58:10.074Z,38.10
2019-06-01T18:00:40.103Z,37.80
2019-06-01T18:03:10.012Z,37.30
2019-06-01T18:05:39.640Z,36.80
2019-06-01T18:08:10.205Z,36.20
2019-06-01T18:10:52.439Z,35.60
2019-06-01T18:13:10.703Z,35.00
2019-06-01T18:15:39.955Z,34.40
2019-06-01T18:18:10.379Z,33.90
2019-06-01T18:20:39.888Z,33.40
2019-06-01T18:23:11.028Z,32.90
2019-06-01T18:25:40.514Z,32.50
2019-06-01T18:30:41.385Z,31.80
2019-06-01T18:33:11.249Z,31.40
2019-06-01T18:35:40.578Z,31.10
2019-06-01T18:38:09.937Z,30.80
2019-06-01T18:40:39.172Z,30.60
2019-06-01T18:43:12.132Z,30.30
2019-06-01T18:45:41.584Z,30.00
2019-06-01T18:48:12.271Z,29.80
2019-06-01T18:50:42.080Z,29.60
2019-06-01T18:53:12.169Z,29.40
2019-06-01T18:55:41.596Z,29.30
2019-06-01T18:58:10.848Z,29.10
2019-06-01T19:00:40.378Z,28.90
2019-06-01T19:03:11.700Z,28.70
2019-06-01T19:05:40.966Z,28.50
2019-06-01T19:08:11.540Z,28.30
2019-06-01T19:10:41.308Z,28.10
2019-06-01T19:13:11.710Z,27.90
2019-06-01T19:15:41.661Z,27.70
2019-06-01T19:18:12.502Z,27.50
2019-06-01T19:20:41.944Z,27.30
2019-06-01T19:23:11.232Z,27.10
2019-06-01T19:25:40.448Z,26.90
2019-06-01T19:28:10.905Z,26.70
2019-06-01T19:30:43.584Z,26.60
2019-06-01T19:33:15.434Z,26.40
2019-06-01T19:35:43.928Z,26.30
2019-06-01T19:38:13.431Z,26.10
2019-06-01T19:40:43.245Z,26.00
2019-06-01T19:43:13.470Z,25.80
2019-06-01T19:45:43.013Z,25.70
2019-06-01T19:48:12.471Z,25.60
2019-06-01T19:50:41.906Z,25.50
2019-06-01T19:53:11.142Z,25.40
2019-06-01T19:55:41.156Z,25.20
2019-06-01T19:58:12.019Z,25.10
2019-06-01T20:00:41.877Z,25.00
2019-06-01T20:03:12.090Z,25.00
2019-06-01T20:05:41.598Z,24.90
2019-06-01T20:08:12.031Z,24.90
2019-06-01T20:10:41.395Z,24.80
2019-06-01T20:13:10.972Z,24.60
2019-06-01T20:15:41.391Z,24.60
2019-06-01T20:18:10.731Z,24.50
2019-06-01T20:20:40.022Z,24.50
2019-06-01T20:23:11.256Z,24.40
2019-06-01T20:25:40.752Z,24.30
2019-06-01T20:28:11.324Z,24.30
2019-06-01T20:30:40.737Z,24.20
2019-06-01T20:33:09.978Z,24.20
2019-06-01T20:35:39.199Z,24.20
2019-06-01T20:38:08.446Z,24.10
2019-06-01T20:40:37.677Z,24.10
2019-06-01T20:43:06.940Z,24.00
2019-06-01T20:45:36.156Z,24.00
2019-06-01T20:48:05.609Z,23.90
2019-06-01T20:50:34.840Z,23.90
2019-06-01T20:53:04.120Z,23.80
2019-06-01T20:55:33.347Z,23.70
2019-06-01T20:58:02.590Z,23.60
2019-06-01T21:00:32.135Z,23.50
2019-06-01T21:03:01.416Z,23.40
2019-06-01T21:05:30.978Z,23.30
2019-06-01T21:08:00.177Z,23.20
2019-06-01T21:10:29.413Z,23.10
2019-06-01T21:12:58.617Z,23.10
2019-06-01T21:15:27.858Z,23.00
2019-06-01T21:17:57.065Z,22.90
2019-06-01T21:20:29.819Z,22.80
2019-06-01T21:22:57.200Z,22.70
2019-06-01T21:25:26.727Z,22.60
2019-06-01T21:27:55.937Z,22.50
2019-06-01T21:30:25.931Z,22.40
2019-06-01T21:32:55.269Z,22.40
2019-06-01T21:35:25.583Z,22.30
2019-06-01T21:37:55.965Z,22.30
2019-06-01T21:40:25.733Z,22.20
2019-06-01T21:43:03.256Z,22.00
2019-06-01T21:45:26.024Z,21.90
2019-06-01T21:47:55.230Z,21.80
2019-06-01T21:50:24.475Z,21.80
2019-06-01T21:52:53.681Z,21.70
2019-06-01T21:55:22.909Z,21.60
2019-06-01T21:57:52.123Z,21.60
2019-06-01T22:00:29.016Z,21.50
2019-06-01T22:02:59.868Z,21.50
2019-06-01T22:05:30.609Z,21.50
2019-06-01T22:08:01.013Z,21.50
2019-06-01T22:10:30.315Z,21.60
2019-06-01T22:12:59.688Z,21.60
2019-06-01T22:15:28.929Z,21.60
2019-06-01T22:17:58.137Z,21.50
2019-06-01T22:20:28.203Z,21.40
2019-06-01T22:22:57.560Z,21.30
2019-06-01T22:25:28.048Z,21.30
2019-06-01T22:27:57.348Z,21.30
2019-06-01T22:30:26.584Z,21.30
2019-06-01T22:32:55.788Z,21.20
2019-06-01T22:35:25.024Z,21.20
2019-06-01T22:37:54.232Z,21.20
2019-06-01T22:40:24.873Z,21.10
2019-06-01T22:42:54.280Z,21.10
2019-06-01T22:45:24.638Z,21.00
2019-06-01T22:47:54.035Z,20.90
2019-06-01T22:50:23.248Z,20.80
2019-06-01T22:52:52.771Z,20.70
2019-06-01T22:55:22.275Z,20.60
2019-06-01T22:57:51.778Z,20.60
2019-06-01T23:00:21.484Z,20.60
2019-06-01T23:02:51.837Z,20.60
2019-06-01T23:05:21.077Z,20.50
2019-06-01T23:07:50.308Z,20.50
2019-06-01T23:10:24.474Z,20.50
2019-06-01T23:12:51.580Z,20.50
2019-06-01T23:15:21.389Z,20.40
2019-06-01T23:17:50.858Z,20.40
2019-06-01T23:20:21.628Z,20.30
2019-06-01T23:22:51.009Z,20.30
2019-06-01T23:25:20.546Z,20.20
2019-06-01T23:27:49.768Z,20.20
2019-06-01T23:30:19.072Z,20.30
2019-06-01T23:32:49.276Z,20.30
2019-06-01T23:35:18.490Z,20.30
2019-06-01T23:37:47.719Z,20.30
2019-06-01T23:40:16.968Z,20.30
2019-06-01T23:42:46.239Z,20.30
2019-06-01T23:45:15.543Z,20.30
2019-06-01T23:47:45.080Z,20.30
2019-06-01T23:50:14.417Z,20.20
2019-06-01T23:52:43.728Z,20.30
2019-06-01T23:55:13.148Z,20.30
2019-06-01T23:57:42.439Z,20.30
